createdAt,value
2016-07-15T00:00:00.605Z,92.93
2016-07-15T00:01:00.594Z,92.79
2016-07-15T00:02:01.289Z,93.93
2016-07-15T00:03:00.582Z,93.46
2016-07-15T00:04:00.556Z,93.84
2016-07-15T00:05:01.251Z,92.97
2016-07-15T00:06:00.534Z,93.36
2016-07-15T00:07:00.518Z,93.26
2016-07-15T00:08:00.509Z,93.46
2016-07-15T00:09:00.496Z,93.07
2016-07-15T00:10:01.190Z,93.84
2016-07-15T00:11:00.472Z,93.65
2016-07-15T00:12:00.460Z,93.26
2016-07-15T00:13:00.447Z,93.36
2016-07-15T00:14:00.431Z,94.03
2016-07-15T00:15:01.128Z,93.65
2016-07-15T00:16:00.412Z,93.46
2016-07-15T00:17:01.103Z,93.55
2016-07-15T00:18:01.092Z,94.03
2016-07-15T00:19:01.077Z,93.84
2016-07-15T00:20:00.359Z,94.41
2016-07-15T00:21:01.063Z,93.65
2016-07-15T00:22:01.039Z,94.31
2016-07-15T00:23:01.030Z,93.84
2016-07-15T00:24:01.019Z,93.84
2016-07-15T00:25:00.295Z,93.84
2016-07-15T00:26:00.997Z,94.41
2016-07-15T00:27:00.976Z,93.74
2016-07-15T00:28:00.976Z,93.84
2016-07-15T00:29:00.954Z,94.12
2016-07-15T00:30:00.939Z,94.41
2016-07-15T00:31:00.930Z,94.03
2016-07-15T00:32:00.916Z,93.74
2016-07-15T00:33:00.904Z,94.22
2016-07-15T00:34:00.185Z,94.22
2016-07-15T00:35:00.172Z,94.31
2016-07-15T00:36:00.161Z,93.84
2016-07-15T00:37:00.159Z,93.84
2016-07-15T00:38:00.136Z,94.22
2016-07-15T00:39:00.125Z,94.12
2016-07-15T00:40:00.831Z,94.03
2016-07-15T00:41:00.806Z,93.65
2016-07-15T00:42:00.792Z,93.74
2016-07-15T00:43:00.091Z,93.55
2016-07-15T00:44:00.771Z,93.93
2016-07-15T00:45:00.051Z,93.84
2016-07-15T00:46:00.049Z,93.65
2016-07-15T00:47:00.728Z,93.84
2016-07-15T00:48:00.025Z,93.84
2016-07-15T00:49:00.709Z,93.84
2016-07-15T00:49:59.987Z,93.84
2016-07-15T00:51:00.683Z,93.84
2016-07-15T00:51:59.969Z,93.46
2016-07-15T00:53:00.664Z,93.65
2016-07-15T00:54:00.647Z,93.07
2016-07-15T00:55:00.633Z,93.12
2016-07-15T00:55:59.913Z,93.5
2016-07-15T00:57:00.608Z,93.31
2016-07-15T00:58:00.594Z,93.65
2016-07-15T00:58:59.875Z,93.36
2016-07-15T00:59:59.880Z,93.6
2016-07-15T01:00:59.857Z,93.5
2016-07-15T01:01:59.840Z,93.07
2016-07-15T01:03:00.534Z,93.65
2016-07-15T01:03:59.815Z,93.12
2016-07-15T01:04:59.806Z,92.93
2016-07-15T01:06:00.494Z,93.02
2016-07-15T01:07:00.481Z,93.12
2016-07-15T01:08:00.472Z,93.02
2016-07-15T01:08:59.750Z,93.12
2016-07-15T01:09:59.744Z,93.12
2016-07-15T01:10:59.727Z,92.83
2016-07-15T01:12:00.422Z,93.12
2016-07-15T01:12:59.704Z,93.12
2016-07-15T01:13:59.694Z,93.12
2016-07-15T01:14:59.678Z,93.79
2016-07-15T01:15:59.664Z,93.02
2016-07-15T01:17:00.361Z,93.02
2016-07-15T01:17:59.642Z,93.02
2016-07-15T01:18:59.629Z,93.21
2016-07-15T01:19:59.621Z,93.02
2016-07-15T01:20:59.606Z,93.12
2016-07-15T01:21:59.596Z,93.12
2016-07-15T01:23:00.284Z,93.6
2016-07-15T01:23:59.568Z,93.12
2016-07-15T01:24:59.571Z,93.12
2016-07-15T01:25:59.547Z,93.7
2016-07-15T01:26:59.536Z,93.79
2016-07-15T01:28:00.223Z,93.12
2016-07-15T01:28:59.505Z,93.12
2016-07-15T01:29:59.496Z,93.02
2016-07-15T01:30:59.481Z,93.31
2016-07-15T01:32:00.184Z,93.12
2016-07-15T01:32:59.458Z,93.31
2016-07-15T01:34:00.161Z,93.31
2016-07-15T01:34:59.433Z,93.7
2016-07-15T01:35:59.422Z,93.02
2016-07-15T01:36:59.406Z,93.12
2016-07-15T01:37:59.390Z,92.45
2016-07-15T01:39:00.088Z,93.12
2016-07-15T01:39:59.368Z,92.93
2016-07-15T01:41:00.067Z,93.12
2016-07-15T01:41:59.343Z,92.83
2016-07-15T01:43:00.039Z,92.74
2016-07-15T01:44:00.030Z,92.45
2016-07-15T01:45:00.016Z,92.64
2016-07-15T01:46:00.004Z,92.64
2016-07-15T01:46:59.281Z,93.12
2016-07-15T01:47:59.272Z,93.12
2016-07-15T01:48:59.258Z,92.93
2016-07-15T01:49:59.243Z,93.02
2016-07-15T01:50:59.234Z,92.74
2016-07-15T01:51:59.222Z,93.02
2016-07-15T01:52:59.214Z,92.93
2016-07-15T01:53:59.199Z,93.02
2016-07-15T01:54:59.184Z,93.12
2016-07-15T01:55:59.880Z,93.12
2016-07-15T01:56:59.158Z,92.83
2016-07-15T01:57:59.155Z,93.12
2016-07-15T01:58:59.841Z,93.02
2016-07-15T01:59:59.831Z,92.55
2016-07-15T02:00:59.822Z,92.83
2016-07-15T02:01:59.804Z,92.55
2016-07-15T02:02:59.105Z,92.45
2016-07-15T02:03:59.083Z,92.64
2016-07-15T02:04:59.767Z,92.36
2016-07-15T02:05:59.760Z,92.64
2016-07-15T02:06:59.036Z,92.74
2016-07-15T02:07:59.732Z,92.93
2016-07-15T02:08:59.015Z,92.93
2016-07-15T02:09:58.997Z,92.93
2016-07-15T02:10:58.988Z,93.41
2016-07-15T02:11:58.975Z,93.6
2016-07-15T02:12:59.672Z,93.17
2016-07-15T02:13:58.951Z,93.21
2016-07-15T02:14:59.644Z,93.41
2016-07-15T02:15:59.632Z,93.31
2016-07-15T02:16:59.631Z,93.36
2016-07-15T02:17:58.901Z,93.26
2016-07-15T02:18:59.595Z,93.07
2016-07-15T02:19:59.583Z,93.21
2016-07-15T02:20:58.866Z,93.5
2016-07-15T02:21:59.560Z,94.07
2016-07-15T02:22:58.841Z,93.7
2016-07-15T02:23:59.535Z,93.88
2016-07-15T02:24:59.520Z,93.79
2016-07-15T02:25:58.809Z,93.5
2016-07-15T02:26:58.791Z,93.88
2016-07-15T02:27:58.780Z,93.46
2016-07-15T02:28:58.766Z,93.31
2016-07-15T02:29:59.660Z,93.12
2016-07-15T02:30:58.741Z,93.02
2016-07-15T02:31:59.434Z,93.6
2016-07-15T02:32:58.716Z,92.93
2016-07-15T02:33:59.413Z,93.02
2016-07-15T02:34:58.694Z,93.41
2016-07-15T02:35:58.681Z,93.02
2016-07-15T02:36:59.371Z,93.6
2016-07-15T02:37:58.655Z,93.31
2016-07-15T02:38:58.643Z,93.12
2016-07-15T02:39:59.338Z,92.45
2016-07-15T02:40:59.360Z,92.45
2016-07-15T02:41:59.310Z,93.02
2016-07-15T02:42:58.591Z,92.16
2016-07-15T02:43:58.581Z,92.16
2016-07-15T02:44:59.273Z,93.12
2016-07-15T02:45:58.556Z,92.83
2016-07-15T02:46:58.543Z,92.45
2016-07-15T02:47:59.238Z,92.45
2016-07-15T02:48:58.521Z,92.26
2016-07-15T02:49:58.510Z,92.26
2016-07-15T02:50:58.494Z,92.45
2016-07-15T02:51:59.191Z,92.64
2016-07-15T02:52:58.472Z,92.45
2016-07-15T02:53:59.165Z,92.26
2016-07-15T02:54:58.444Z,92.26
2016-07-15T02:55:59.143Z,92.36
2016-07-15T02:56:59.130Z,92.45
2016-07-15T02:57:59.117Z,92.55
2016-07-15T02:58:59.101Z,92.64
2016-07-15T02:59:59.091Z,92.55
2016-07-15T03:00:58.373Z,92.45
2016-07-15T03:01:59.066Z,91.97
2016-07-15T03:02:59.056Z,92.26
2016-07-15T03:03:59.046Z,91.59
2016-07-15T03:04:58.322Z,91.88
2016-07-15T03:05:59.018Z,91.88
2016-07-15T03:06:59.016Z,91.78
2016-07-15T03:07:58.998Z,91.69
2016-07-15T03:08:58.271Z,92.07
2016-07-15T03:09:58.968Z,91.88
2016-07-15T03:10:58.249Z,91.69
2016-07-15T03:11:58.942Z,92.07
2016-07-15T03:12:58.225Z,91.5
2016-07-15T03:13:58.918Z,91.97
2016-07-15T03:14:58.203Z,92.16
2016-07-15T03:15:58.187Z,92.07
2016-07-15T03:16:58.193Z,91.69
2016-07-15T03:17:58.869Z,91.4
2016-07-15T03:18:58.154Z,91.4
2016-07-15T03:19:58.845Z,91.69
2016-07-15T03:20:58.836Z,91.5
2016-07-15T03:21:58.114Z,91.69
2016-07-15T03:22:58.811Z,91.3
2016-07-15T03:23:58.091Z,91.88
2016-07-15T03:24:58.078Z,91.3
2016-07-15T03:25:58.786Z,91.21
2016-07-15T03:26:58.053Z,91.3
2016-07-15T03:27:58.049Z,91.5
2016-07-15T03:28:58.733Z,91.59
2016-07-15T03:29:58.016Z,91.69
2016-07-15T03:30:58.711Z,91.4
2016-07-15T03:31:57.992Z,91.88
2016-07-15T03:32:57.982Z,91.78
2016-07-15T03:33:58.675Z,91.97
2016-07-15T03:34:57.954Z,91.5
2016-07-15T03:35:58.654Z,92.26
2016-07-15T03:36:57.941Z,91.59
2016-07-15T03:37:57.920Z,91.69
2016-07-15T03:38:57.903Z,91.3
2016-07-15T03:39:58.598Z,91.74
2016-07-15T03:40:57.880Z,91.54
2016-07-15T03:41:57.868Z,91.54
2016-07-15T03:42:57.856Z,91.54
2016-07-15T03:43:57.843Z,91.45
2016-07-15T03:44:57.833Z,91.74
2016-07-15T03:45:57.820Z,91.35
2016-07-15T03:46:57.808Z,91.54
2016-07-15T03:47:57.794Z,91.45
2016-07-15T03:48:58.489Z,91.54
2016-07-15T03:49:58.488Z,91.64
2016-07-15T03:50:57.760Z,91.45
2016-07-15T03:51:58.451Z,91.35
2016-07-15T03:52:57.734Z,91.35
2016-07-15T03:53:57.723Z,91.35
2016-07-15T03:54:57.710Z,91.35
2016-07-15T03:55:57.709Z,91.54
2016-07-15T03:56:57.693Z,91.54
2016-07-15T03:57:58.381Z,91.64
2016-07-15T03:58:58.369Z,91.06
2016-07-15T03:59:57.647Z,91.69
2016-07-15T04:00:57.638Z,91.4
2016-07-15T04:01:57.627Z,91.54
2016-07-15T04:02:57.613Z,91.88
2016-07-15T04:03:57.599Z,91.74
2016-07-15T04:04:58.302Z,91.06
2016-07-15T04:05:57.577Z,90.88
2016-07-15T04:06:58.271Z,91.25
2016-07-15T04:07:58.278Z,91.35
2016-07-15T04:08:57.542Z,91.3
2016-07-15T04:09:57.534Z,90.97
2016-07-15T04:10:57.515Z,91.16
2016-07-15T04:11:57.507Z,90.68
2016-07-15T04:12:57.491Z,90.49
2016-07-15T04:13:57.479Z,91.06
2016-07-15T04:14:57.464Z,91.16
2016-07-15T04:15:58.163Z,90.88
2016-07-15T04:16:57.442Z,91.45
2016-07-15T04:17:58.135Z,90.78
2016-07-15T04:18:57.419Z,91.25
2016-07-15T04:19:57.409Z,91.35
2016-07-15T04:20:57.393Z,91.54
2016-07-15T04:21:58.087Z,90.78
2016-07-15T04:22:58.075Z,90.39
2016-07-15T04:23:57.354Z,90.49
2016-07-15T04:24:57.347Z,90.39
2016-07-15T04:25:58.039Z,90.59
2016-07-15T04:26:57.321Z,90.68
2016-07-15T04:27:57.310Z,90.49
2016-07-15T04:28:57.294Z,90.2
2016-07-15T04:29:57.488Z,90.3
2016-07-15T04:30:57.274Z,90.68
2016-07-15T04:31:57.967Z,90.59
2016-07-15T04:32:57.249Z,90.49
2016-07-15T04:33:57.235Z,90.59
2016-07-15T04:34:57.932Z,90.49
2016-07-15T04:35:57.919Z,90.39
2016-07-15T04:36:57.919Z,90.49
2016-07-15T04:37:57.190Z,90.88
2016-07-15T04:38:57.178Z,90.59
2016-07-15T04:39:57.162Z,90.59
2016-07-15T04:40:57.859Z,90.2
2016-07-15T04:41:57.858Z,90.59
2016-07-15T04:42:57.838Z,90.2
2016-07-15T04:43:57.124Z,89.92
2016-07-15T04:44:57.119Z,89.73
2016-07-15T04:45:57.796Z,89.82
2016-07-15T04:46:57.082Z,90.3
2016-07-15T04:47:57.773Z,90.2
2016-07-15T04:48:57.771Z,90.11
2016-07-15T04:49:57.752Z,89.92
2016-07-15T04:50:57.029Z,90.11
2016-07-15T04:51:57.735Z,90.01
2016-07-15T04:52:57.057Z,90.59
2016-07-15T04:53:56.994Z,90.11
2016-07-15T04:54:56.981Z,90.2
2016-07-15T04:55:57.682Z,89.73
2016-07-15T04:56:57.662Z,90.39
2016-07-15T04:57:56.947Z,89.73
2016-07-15T04:58:56.931Z,90.11
2016-07-15T04:59:56.923Z,90.39
2016-07-15T05:00:57.618Z,89.34
2016-07-15T05:01:56.898Z,90.01
2016-07-15T05:02:56.882Z,89.63
2016-07-15T05:03:56.872Z,89.53
2016-07-15T05:04:57.569Z,89.53
2016-07-15T05:05:56.844Z,89.63
2016-07-15T05:06:56.841Z,89.53
2016-07-15T05:07:56.823Z,89.92
2016-07-15T05:08:56.812Z,89.15
2016-07-15T05:09:56.800Z,89.15
2016-07-15T05:10:56.787Z,89.53
2016-07-15T05:11:56.774Z,89.34
2016-07-15T05:12:56.766Z,89.25
2016-07-15T05:13:56.750Z,89.29
2016-07-15T05:14:56.741Z,89.34
2016-07-15T05:15:57.435Z,88.91
2016-07-15T05:16:56.715Z,89.01
2016-07-15T05:17:56.705Z,89.39
2016-07-15T05:18:56.696Z,88.81
2016-07-15T05:19:57.390Z,89.39
2016-07-15T05:20:56.669Z,89.2
2016-07-15T05:21:57.361Z,88.53
2016-07-15T05:22:57.362Z,88.91
2016-07-15T05:23:57.348Z,88.62
2016-07-15T05:24:56.625Z,89.2
2016-07-15T05:25:56.616Z,89.1
2016-07-15T05:26:56.598Z,88.53
2016-07-15T05:27:56.598Z,88.62
2016-07-15T05:28:56.576Z,88.53
2016-07-15T05:29:56.563Z,89.2
2016-07-15T05:30:57.271Z,88.91
2016-07-15T05:31:56.538Z,89.1
2016-07-15T05:32:56.527Z,89.01
2016-07-15T05:33:56.518Z,89.01
2016-07-15T05:34:57.210Z,88.91
2016-07-15T05:35:56.491Z,88.53
2016-07-15T05:36:56.480Z,88.72
2016-07-15T05:37:56.469Z,88.53
2016-07-15T05:38:57.166Z,88.15
2016-07-15T05:39:56.442Z,88.24
2016-07-15T05:40:57.141Z,89.2
2016-07-15T05:41:56.425Z,88.62
2016-07-15T05:42:56.409Z,88.62
2016-07-15T05:43:56.400Z,88.72
2016-07-15T05:44:57.092Z,88.81
2016-07-15T05:45:56.378Z,88.53
2016-07-15T05:46:57.069Z,88.81
2016-07-15T05:47:56.351Z,88.72
2016-07-15T05:48:56.339Z,88.43
2016-07-15T05:49:57.033Z,88.53
2016-07-15T05:50:56.316Z,88.15
2016-07-15T05:51:57.014Z,88.05
2016-07-15T05:52:57.003Z,88.62
2016-07-15T05:53:56.987Z,88.62
2016-07-15T05:54:56.269Z,88.43
2016-07-15T05:55:56.259Z,88.34
2016-07-15T05:56:56.953Z,88.34
2016-07-15T05:57:56.939Z,88.15
2016-07-15T05:58:56.228Z,88.62
2016-07-15T05:59:56.212Z,87.81
2016-07-15T06:00:56.202Z,88.09
2016-07-15T06:01:56.898Z,88.29
2016-07-15T06:02:56.179Z,87.62
2016-07-15T06:03:56.165Z,87.81
2016-07-15T06:04:56.865Z,88.15
2016-07-15T06:05:56.851Z,87.71
2016-07-15T06:06:56.136Z,87.81
2016-07-15T06:07:56.830Z,87.71
2016-07-15T06:08:56.110Z,87.9
2016-07-15T06:09:56.098Z,86.94
2016-07-15T06:10:56.087Z,87.04
2016-07-15T06:11:56.074Z,87.43
2016-07-15T06:12:56.773Z,87.52
2016-07-15T06:13:56.056Z,87.81
2016-07-15T06:14:56.749Z,87.43
2016-07-15T06:15:56.741Z,87.71
2016-07-15T06:16:56.019Z,87.23
2016-07-15T06:17:56.009Z,87.62
2016-07-15T06:18:55.997Z,87.33
2016-07-15T06:19:55.983Z,87.23
2016-07-15T06:20:56.687Z,86.94
2016-07-15T06:21:55.964Z,87.04
2016-07-15T06:22:56.660Z,87.33
2016-07-15T06:23:55.941Z,86.85
2016-07-15T06:24:55.928Z,87.33
2016-07-15T06:25:55.917Z,86.37
2016-07-15T06:26:55.907Z,86.66
2016-07-15T06:27:56.604Z,86.57
2016-07-15T06:28:55.934Z,86.76
2016-07-15T06:29:56.075Z,86.13
2016-07-15T06:30:55.863Z,86.57
2016-07-15T06:31:55.856Z,86.66
2016-07-15T06:32:55.846Z,85.51
2016-07-15T06:33:56.539Z,85.89
2016-07-15T06:34:55.817Z,85.99
2016-07-15T06:35:55.808Z,85.89
2016-07-15T06:36:56.552Z,86.04
2016-07-15T06:37:56.504Z,86.32
2016-07-15T06:38:55.780Z,85.84
2016-07-15T06:39:56.482Z,84.88
2016-07-15T06:40:55.749Z,85.27
2016-07-15T06:41:56.450Z,85.55
2016-07-15T06:42:56.438Z,84.88
2016-07-15T06:43:56.425Z,84.69
2016-07-15T06:44:55.710Z,84.12
2016-07-15T06:45:55.699Z,84.59
2016-07-15T06:46:56.394Z,84.06
2016-07-15T06:47:56.382Z,84.64
2016-07-15T06:48:56.374Z,84.06
2016-07-15T06:49:55.654Z,83.39
2016-07-15T06:50:55.693Z,82.67
2016-07-15T06:51:55.636Z,82.76
2016-07-15T06:52:55.620Z,82.86
2016-07-15T06:53:56.343Z,82.67
2016-07-15T06:54:56.325Z,82.29
2016-07-15T06:55:56.296Z,82.09
2016-07-15T06:56:55.580Z,81.81
2016-07-15T06:57:55.622Z,82.57
2016-07-15T06:58:56.270Z,81.71
2016-07-15T06:59:55.559Z,82.09
2016-07-15T07:00:55.536Z,82
2016-07-15T07:01:56.234Z,81.81
2016-07-15T07:02:55.516Z,82.19
2016-07-15T07:03:55.506Z,82.76
2016-07-15T07:04:55.498Z,82
2016-07-15T07:05:55.483Z,81.33
2016-07-15T07:06:55.477Z,82.09
2016-07-15T07:07:55.467Z,80.89
2016-07-15T07:08:55.456Z,81.75
2016-07-15T07:09:56.165Z,80.41
2016-07-15T07:10:55.435Z,80.51
2016-07-15T07:11:55.426Z,80.27
2016-07-15T07:12:56.121Z,80.12
2016-07-15T07:13:55.410Z,80.66
2016-07-15T07:14:56.103Z,81.08
2016-07-15T07:15:55.390Z,80.85
2016-07-15T07:16:55.374Z,80.99
2016-07-15T07:17:56.072Z,81.37
2016-07-15T07:18:55.359Z,80.7
2016-07-15T07:19:55.348Z,78.97
2016-07-15T07:20:56.042Z,79.64
2016-07-15T07:21:56.043Z,79.83
2016-07-15T07:22:56.024Z,80.89
2016-07-15T07:23:55.307Z,80.41
2016-07-15T07:24:56.003Z,79.97
2016-07-15T07:25:55.292Z,80.07
2016-07-15T07:26:55.278Z,78.82
2016-07-15T07:27:55.268Z,78.11
2016-07-15T07:28:55.256Z,78.59
2016-07-15T07:29:55.955Z,78.11
2016-07-15T07:30:55.944Z,78.78
2016-07-15T07:31:55.232Z,79.74
2016-07-15T07:32:55.926Z,78.69
2016-07-15T07:33:55.212Z,79.93
2016-07-15T07:34:55.908Z,79.74
2016-07-15T07:35:55.192Z,79.45
2016-07-15T07:36:55.886Z,77.34
2016-07-15T07:37:55.878Z,75.56
2016-07-15T07:38:55.165Z,75.21
2016-07-15T07:39:55.163Z,75.12
2016-07-15T07:40:55.849Z,77.19
2016-07-15T07:41:55.843Z,77
2016-07-15T07:42:55.834Z,78.05
2016-07-15T07:43:55.823Z,77.76
2016-07-15T07:44:55.118Z,77.48
2016-07-15T07:45:55.099Z,77.29
2016-07-15T07:46:55.091Z,77.06
2016-07-15T07:47:55.790Z,77.53
2016-07-15T07:48:55.075Z,77.73
2016-07-15T07:49:55.767Z,77.15
2016-07-15T07:50:55.055Z,77.25
2016-07-15T07:51:55.045Z,74.41
2016-07-15T07:52:55.036Z,73.24
2016-07-15T07:53:55.030Z,72.85
2016-07-15T07:54:55.020Z,71.1
2016-07-15T07:55:55.718Z,68.29
2016-07-15T07:56:55.004Z,66.88
2016-07-15T07:57:54.997Z,64.79
2016-07-15T07:58:54.984Z,62.63
2016-07-15T07:59:54.981Z,62.45
2016-07-15T08:00:54.973Z,61.38
2016-07-15T08:01:55.672Z,60.1
2016-07-15T08:02:54.957Z,58.45
2016-07-15T08:03:55.665Z,58.36
2016-07-15T08:04:54.947Z,57.29
2016-07-15T08:05:55.652Z,57.32
2016-07-15T08:06:54.940Z,59.35
2016-07-15T08:07:54.933Z,61.29
2016-07-15T08:08:54.925Z,58.97
2016-07-15T08:09:54.922Z,58.33
2016-07-15T08:10:54.923Z,58.84
2016-07-15T08:11:54.909Z,61.19
2016-07-15T08:12:54.902Z,63.64
2016-07-15T08:13:55.604Z,62.54
2016-07-15T08:14:55.599Z,65.81
2016-07-15T08:15:54.887Z,66.27
2016-07-15T08:16:54.884Z,66.61
2016-07-15T08:17:54.881Z,67.74
2016-07-15T08:18:54.870Z,69.43
2016-07-15T08:19:54.860Z,70.26
2016-07-15T08:20:55.563Z,71.22
2016-07-15T08:21:54.847Z,70.45
2016-07-15T08:22:55.549Z,69.36
2016-07-15T08:23:55.540Z,66.58
2016-07-15T08:24:54.826Z,65.17
2016-07-15T08:25:54.825Z,61.68
2016-07-15T08:26:55.517Z,59.62
2016-07-15T08:27:55.517Z,58.91
2016-07-15T08:28:54.800Z,56.16
2016-07-15T08:29:54.999Z,52.17
2016-07-15T08:30:54.790Z,50.84
2016-07-15T08:31:54.783Z,48.16
2016-07-15T08:32:54.782Z,48.83
2016-07-15T08:33:54.771Z,48.27
2016-07-15T08:34:54.770Z,46.46
2016-07-15T08:35:54.765Z,45.59
2016-07-15T08:36:55.467Z,44.84
2016-07-15T08:37:54.754Z,43.68
2016-07-15T08:38:54.753Z,44.26
2016-07-15T08:39:54.748Z,45.81
2016-07-15T08:40:54.742Z,48.74
2016-07-15T08:41:54.741Z,51.17
2016-07-15T08:42:55.451Z,52.67
2016-07-15T08:43:54.735Z,52.73
2016-07-15T08:44:55.436Z,53.05
2016-07-15T08:45:55.434Z,53.41
2016-07-15T08:46:54.726Z,51
2016-07-15T08:47:54.720Z,49.63
2016-07-15T08:48:54.711Z,46.58
2016-07-15T08:49:55.417Z,48.83
2016-07-15T08:50:54.705Z,50.13
2016-07-15T08:51:54.700Z,49.53
2016-07-15T08:52:55.405Z,50.26
2016-07-15T08:53:55.398Z,51.58
2016-07-15T08:54:54.691Z,51.48
2016-07-15T08:55:55.389Z,53.77
2016-07-15T08:56:54.676Z,55.26
2016-07-15T08:57:55.383Z,54.87
2016-07-15T08:58:55.377Z,57.73
2016-07-15T08:59:54.662Z,59.56
2016-07-15T09:00:55.368Z,59.92
2016-07-15T09:01:54.655Z,60.08
2016-07-15T09:02:55.352Z,60.85
2016-07-15T09:03:55.346Z,62.35
2016-07-15T09:04:55.342Z,62.16
2016-07-15T09:05:55.341Z,61.78
2016-07-15T09:06:54.618Z,62.16
2016-07-15T09:07:55.320Z,62.07
2016-07-15T09:08:54.606Z,62.26
2016-07-15T09:09:54.601Z,60.56
2016-07-15T09:10:54.602Z,61.14
2016-07-15T09:11:54.584Z,60.88
2016-07-15T09:12:55.289Z,58.95
2016-07-15T09:13:54.573Z,57.06
2016-07-15T09:14:55.274Z,56.99
2016-07-15T09:15:55.270Z,56.9
2016-07-15T09:16:55.268Z,55.96
2016-07-15T09:17:54.550Z,54.35
2016-07-15T09:18:54.545Z,55.92
2016-07-15T09:19:54.542Z,54.09
2016-07-15T09:20:55.241Z,54.74
2016-07-15T09:21:54.530Z,55.57
2016-07-15T09:22:55.231Z,58.15
2016-07-15T09:23:54.521Z,58.05
2016-07-15T09:24:54.514Z,58.12
2016-07-15T09:25:54.514Z,58.98
2016-07-15T09:26:55.211Z,58.98
2016-07-15T09:27:54.499Z,58.22
2016-07-15T09:28:54.491Z,59.75
2016-07-15T09:29:54.496Z,60.3
2016-07-15T09:30:55.187Z,61
2016-07-15T09:31:54.476Z,60.55
2016-07-15T09:32:55.172Z,57.95
2016-07-15T09:33:55.172Z,59.17
2016-07-15T09:34:54.456Z,60.81
2016-07-15T09:35:54.455Z,61.19
2016-07-15T09:36:54.443Z,61.46
2016-07-15T09:37:54.439Z,61.74
2016-07-15T09:38:54.433Z,61.52
2016-07-15T09:39:55.133Z,62.58
2016-07-15T09:40:54.423Z,61.61
2016-07-15T09:41:54.410Z,63.06
2016-07-15T09:42:55.113Z,61.61
2016-07-15T09:43:55.108Z,61.29
2016-07-15T09:44:55.100Z,61.19
2016-07-15T09:45:54.385Z,56.99
2016-07-15T09:46:54.391Z,57.02
2016-07-15T09:47:54.374Z,54.74
2016-07-15T09:48:55.078Z,53.99
2016-07-15T09:49:54.364Z,53.15
2016-07-15T09:50:54.361Z,52.31
2016-07-15T09:51:54.353Z,55.36
2016-07-15T09:52:54.348Z,54.4
2016-07-15T09:53:54.343Z,54.21
2016-07-15T09:54:54.339Z,53.63
2016-07-15T09:55:54.333Z,53.51
2016-07-15T09:56:54.330Z,54.16
2016-07-15T09:57:55.031Z,53.87
2016-07-15T09:58:55.024Z,56.15
2016-07-15T09:59:54.316Z,57.86
2016-07-15T10:00:55.021Z,58.63
2016-07-15T10:01:54.306Z,59.17
2016-07-15T10:02:54.303Z,59.94
2016-07-15T10:03:55.003Z,58.22
2016-07-15T10:04:54.291Z,59.11
2016-07-15T10:05:55.039Z,59.78
2016-07-15T10:06:54.286Z,59.3
2016-07-15T10:07:54.276Z,58.98
2016-07-15T10:08:54.976Z,59.01
2016-07-15T10:09:54.967Z,59.97
2016-07-15T10:10:54.961Z,59.59
2016-07-15T10:11:54.249Z,58.53
2016-07-15T10:12:54.963Z,56.9
2016-07-15T10:13:54.239Z,58.37
2016-07-15T10:14:54.940Z,57.27
2016-07-15T10:15:54.227Z,54.24
2016-07-15T10:16:54.222Z,53.95
2016-07-15T10:17:54.925Z,54.11
2016-07-15T10:18:54.215Z,52.98
2016-07-15T10:19:54.919Z,52.95
2016-07-15T10:20:54.921Z,51.41
2016-07-15T10:21:54.199Z,51.25
2016-07-15T10:22:54.194Z,52.11
2016-07-15T10:23:54.899Z,55.18
2016-07-15T10:24:54.187Z,56.79
2016-07-15T10:25:54.178Z,57.05
2016-07-15T10:26:54.180Z,58.47
2016-07-15T10:27:54.170Z,59.43
2016-07-15T10:28:54.171Z,59.52
2016-07-15T10:29:54.363Z,59.04
2016-07-15T10:30:54.861Z,59.59
2016-07-15T10:31:54.859Z,60.72
2016-07-15T10:32:54.148Z,60.91
2016-07-15T10:33:54.143Z,60.14
2016-07-15T10:34:54.140Z,61.19
2016-07-15T10:35:54.832Z,61.07
2016-07-15T10:36:54.124Z,62.32
2016-07-15T10:37:54.116Z,61.16
2016-07-15T10:38:54.110Z,60.42
2016-07-15T10:39:54.103Z,60.72
2016-07-15T10:40:54.096Z,59.49
2016-07-15T10:41:54.091Z,58.53
2016-07-15T10:42:54.843Z,58.72
2016-07-15T10:43:54.080Z,58.08
2016-07-15T10:44:54.777Z,57.53
2016-07-15T10:45:54.066Z,59.04
2016-07-15T10:46:54.061Z,57.34
2016-07-15T10:47:54.056Z,58.88
2016-07-15T10:48:54.758Z,57.98
2016-07-15T10:49:54.755Z,58.27
2016-07-15T10:50:54.037Z,59.33
2016-07-15T10:51:54.030Z,59.88
2016-07-15T10:52:54.029Z,58.85
2016-07-15T10:53:54.016Z,59.14
2016-07-15T10:54:54.014Z,58.56
2016-07-15T10:55:54.006Z,57.02
2016-07-15T10:56:54.001Z,57.14
2016-07-15T10:57:54.701Z,55.44
2016-07-15T10:58:53.991Z,55.85
2016-07-15T10:59:53.981Z,55.46
2016-07-15T11:00:54.687Z,54.98
2016-07-15T11:01:53.972Z,54.31
2016-07-15T11:02:54.674Z,55.44
2016-07-15T11:03:53.959Z,56.69
2016-07-15T11:04:53.955Z,57.92
2016-07-15T11:05:54.659Z,56.66
2016-07-15T11:06:53.947Z,57.65
2016-07-15T11:07:54.647Z,53.25
2016-07-15T11:08:53.929Z,52.11
2016-07-15T11:09:54.636Z,52.53
2016-07-15T11:10:53.922Z,54.39
2016-07-15T11:11:53.916Z,49.97
2016-07-15T11:12:53.914Z,48.13
2016-07-15T11:13:53.912Z,47.21
2016-07-15T11:14:54.613Z,45.76
2016-07-15T11:15:54.610Z,44.72
2016-07-15T11:16:54.606Z,43.75
2016-07-15T11:17:53.900Z,44.98
2016-07-15T11:18:53.897Z,46.7
2016-07-15T11:19:53.902Z,47.31
2016-07-15T11:20:53.892Z,45.95
2016-07-15T11:21:53.892Z,45.66
2016-07-15T11:22:53.888Z,45.76
2016-07-15T11:23:53.888Z,47.36
2016-07-15T11:24:53.884Z,47.94
2016-07-15T11:25:54.591Z,48.37
2016-07-15T11:26:53.881Z,46.75
2016-07-15T11:27:53.879Z,44.16
2016-07-15T11:28:53.884Z,44.67
2016-07-15T11:29:53.885Z,43.77
2016-07-15T11:30:53.880Z,44.26
2016-07-15T11:31:54.588Z,43.55
2016-07-15T11:32:53.879Z,45.37
2016-07-15T11:33:53.877Z,45.66
2016-07-15T11:34:54.587Z,45.76
2016-07-15T11:35:54.585Z,43.75
2016-07-15T11:36:53.877Z,43.68
2016-07-15T11:37:53.925Z,43.85
2016-07-15T11:38:54.582Z,44.89
2016-07-15T11:39:54.584Z,43.75
2016-07-15T11:40:53.875Z,45.01
2016-07-15T11:41:53.873Z,44.74
2016-07-15T11:42:54.583Z,44.79
2016-07-15T11:43:53.875Z,44.96
2016-07-15T11:44:53.870Z,44.12
2016-07-15T11:45:53.873Z,45.54
2016-07-15T11:46:54.579Z,46.25
2016-07-15T11:47:53.868Z,47.58
2016-07-15T11:48:53.873Z,47
2016-07-15T11:49:53.871Z,48.27
2016-07-15T11:50:54.601Z,48.3
2016-07-15T11:51:53.871Z,46.84
2016-07-15T11:52:54.575Z,44.04
2016-07-15T11:53:54.621Z,42.51
2016-07-15T11:54:54.571Z,43.41
2016-07-15T11:55:53.867Z,41.95
2016-07-15T11:56:53.865Z,40.81
2016-07-15T11:57:53.872Z,43.33
2016-07-15T11:58:53.873Z,42.09
2016-07-15T11:59:54.571Z,42.19
2016-07-15T12:00:53.869Z,42.29
2016-07-15T12:01:53.869Z,41.41
2016-07-15T12:02:53.875Z,40.64
2016-07-15T12:03:53.871Z,41.31
2016-07-15T12:04:54.579Z,40.25
2016-07-15T12:05:53.872Z,40.92
2016-07-15T12:06:54.582Z,41.89
2016-07-15T12:07:53.874Z,41.8
2016-07-15T12:08:54.582Z,41.12
2016-07-15T12:09:54.581Z,43.91
2016-07-15T12:10:53.877Z,43.21
2016-07-15T12:11:53.876Z,45.61
2016-07-15T12:12:54.584Z,44.16
2016-07-15T12:13:54.582Z,44.81
2016-07-15T12:14:53.878Z,46.63
2016-07-15T12:15:54.584Z,46.34
2016-07-15T12:16:53.873Z,44.77
2016-07-15T12:17:53.870Z,46.68
2016-07-15T12:18:54.578Z,48.03
2016-07-15T12:19:53.867Z,48.11
2016-07-15T12:20:53.873Z,49.75
2016-07-15T12:21:53.865Z,48.76
2016-07-15T12:22:53.859Z,49.53
2016-07-15T12:23:54.566Z,50.69
2016-07-15T12:24:53.854Z,49.44
2016-07-15T12:25:54.558Z,49.34
2016-07-15T12:26:53.848Z,49.37
2016-07-15T12:27:54.561Z,49.39
2016-07-15T12:28:53.841Z,49.32
2016-07-15T12:29:54.041Z,48.66
2016-07-15T12:30:53.884Z,47.11
2016-07-15T12:31:54.540Z,46.34
2016-07-15T12:32:54.539Z,48.74
2016-07-15T12:33:54.534Z,48.64
2016-07-15T12:34:53.823Z,48.64
2016-07-15T12:35:54.750Z,49.6
2016-07-15T12:36:53.817Z,49.87
2016-07-15T12:37:54.523Z,50.16
2016-07-15T12:38:53.814Z,48.52
2016-07-15T12:39:54.522Z,49.77
2016-07-15T12:40:54.516Z,50.16
2016-07-15T12:41:53.800Z,50.93
2016-07-15T12:42:53.798Z,51.78
2016-07-15T12:43:53.794Z,49.27
2016-07-15T12:44:53.790Z,49.37
2016-07-15T12:45:53.783Z,50.4
2016-07-15T12:46:53.785Z,51.46
2016-07-15T12:47:53.778Z,50.67
2016-07-15T12:48:53.774Z,50.67
2016-07-15T12:49:54.477Z,51.44
2016-07-15T12:50:54.470Z,51.8
2016-07-15T12:51:54.465Z,52.67
2016-07-15T12:52:54.462Z,53.05
2016-07-15T12:53:53.751Z,52.31